sensor_id;sensor_type;location;lat;lon;timestamp;pressure;altitude;pressure_sealevel;temperature;humidity
6200;BME280;3133;43.214;27.906;2023-05-25T00:00:18;100513.47;;;16.15;100.00
6200;BME280;3133;43.214;27.906;2023-05-25T00:02:46;100506.44;;;16.16;100.00
6200;BME280;3133;43.214;27.906;2023-05-25T00:05:13;100456.28;;;15.86;100.00
6200;BME280;3133;43.214;27.906;2023-05-25T00:07:42;100434.59;;;15.75;100.00
6200;BME280;3133;43.214;27.906;2023-05-25T00:10:11;100491.16;;;15.94;100.00
6200;BME280;3133;43.214;27.906;2023-05-25T00:12:40;100478.97;;;15.90;100.00
6200;BME280;3133;43.214;27.906;2023-05-25T00:15:09;100494.06;;;15.82;100.00
6200;BME280;3133;43.214;27.906;2023-05-25T00:17:36;100505.28;;;15.90;100.00
6200;BME280;3133;43.214;27.906;2023-05-25T00:20:05;100408.25;;;15.37;100.00
6200;BME280;3133;43.214;27.906;2023-05-25T00:22:33;100437.84;;;15.47;100.00
6200;BME280;3133;43.214;27.906;2023-05-25T00:25:00;100504.50;;;15.85;100.00
6200;BME280;3133;43.214;27.906;2023-05-25T00:27:27;100463.75;;;15.65;100.00
6200;BME280;3133;43.214;27.906;2023-05-25T00:29:55;100501.81;;;15.88;100.00
6200;BME280;3133;43.214;27.906;2023-05-25T00:32:22;100501.97;;;15.81;100.00
6200;BME280;3133;43.214;27.906;2023-05-25T00:34:49;100501.94;;;15.82;100.00
6200;BME280;3133;43.214;27.906;2023-05-25T00:37:16;100498.50;;;15.80;100.00
6200;BME280;3133;43.214;27.906;2023-05-25T00:39:43;100485.75;;;15.61;100.00
6200;BME280;3133;43.214;27.906;2023-05-25T00:42:10;100481.44;;;15.58;100.00
6200;BME280;3133;43.214;27.906;2023-05-25T00:44:37;100506.72;;;15.65;100.00
6200;BME280;3133;43.214;27.906;2023-05-25T00:47:05;100497.81;;;15.71;100.00
6200;BME280;3133;43.214;27.906;2023-05-25T00:49:34;100502.09;;;15.75;100.00
6200;BME280;3133;43.214;27.906;2023-05-25T00:52:02;100477.28;;;15.48;100.00
6200;BME280;3133;43.214;27.906;2023-05-25T00:54:28;100479.69;;;15.59;100.00
6200;BME280;3133;43.214;27.906;2023-05-25T00:57:00;100502.28;;;15.66;100.00
6200;BME280;3133;43.214;27.906;2023-05-25T00:59:31;100481.47;;;15.57;100.00
6200;BME280;3133;43.214;27.906;2023-05-25T01:02:08;100477.06;;;15.59;100.00
6200;BME280;3133;43.214;27.906;2023-05-25T01:04:39;100489.03;;;15.72;100.00
6200;BME280;3133;43.214;27.906;2023-05-25T01:07:08;100491.63;;;15.73;100.00
6200;BME280;3133;43.214;27.906;2023-05-25T01:09:38;100412.91;;;15.24;100.00
6200;BME280;3133;43.214;27.906;2023-05-25T01:12:08;100498.59;;;15.74;100.00
6200;BME280;3133;43.214;27.906;2023-05-25T01:14:40;100489.81;;;15.75;100.00
6200;BME280;3133;43.214;27.906;2023-05-25T01:17:09;100471.72;;;15.62;100.00
6200;BME280;3133;43.214;27.906;2023-05-25T01:19:36;100493.38;;;15.73;100.00
6200;BME280;3133;43.214;27.906;2023-05-25T01:22:12;100470.09;;;15.56;100.00
6200;BME280;3133;43.214;27.906;2023-05-25T01:24:43;100486.03;;;15.47;100.00
6200;BME280;3133;43.214;27.906;2023-05-25T01:27:15;100494.75;;;15.49;100.00
6200;BME280;3133;43.214;27.906;2023-05-25T01:29:44;100492.09;;;15.52;100.00
6200;BME280;3133;43.214;27.906;2023-05-25T01:32:13;100471.34;;;15.37;100.00
6200;BME280;3133;43.214;27.906;2023-05-25T01:34:42;100488.53;;;15.53;100.00
6200;BME280;3133;43.214;27.906;2023-05-25T01:37:11;100426.97;;;15.22;100.00
6200;BME280;3133;43.214;27.906;2023-05-25T01:39:39;100487.75;;;15.50;100.00
6200;BME280;3133;43.214;27.906;2023-05-25T01:42:06;100486.97;;;15.46;100.00
6200;BME280;3133;43.214;27.906;2023-05-25T01:44:35;100480.09;;;15.36;100.00
6200;BME280;3133;43.214;27.906;2023-05-25T01:47:15;100484.75;;;15.23;100.00
6200;BME280;3133;43.214;27.906;2023-05-25T01:49:50;100467.44;;;15.13;100.00
6200;BME280;3133;43.214;27.906;2023-05-25T01:52:25;100458.09;;;14.97;100.00
6200;BME280;3133;43.214;27.906;2023-05-25T01:54:58;100469.31;;;15.07;100.00
6200;BME280;3133;43.214;27.906;2023-05-25T01:57:28;100484.88;;;15.17;100.00
6200;BME280;3133;43.214;27.906;2023-05-25T01:59:56;100489.06;;;15.26;100.00
6200;BME280;3133;43.214;27.906;2023-05-25T02:02:25;100486.50;;;15.23;100.00
6200;BME280;3133;43.214;27.906;2023-05-25T02:04:55;100463.13;;;15.09;100.00
6200;BME280;3133;43.214;27.906;2023-05-25T02:07:24;100487.41;;;15.22;100.00
6200;BME280;3133;43.214;27.906;2023-05-25T02:09:51;100496.25;;;15.18;100.00
6200;BME280;3133;43.214;27.906;2023-05-25T02:12:18;100488.38;;;15.18;100.00
6200;BME280;3133;43.214;27.906;2023-05-25T02:14:45;100485.72;;;15.18;100.00
6200;BME280;3133;43.214;27.906;2023-05-25T02:17:13;100485.78;;;15.15;100.00
6200;BME280;3133;43.214;27.906;2023-05-25T02:19:42;100486.88;;;15.03;100.00
6200;BME280;3133;43.214;27.906;2023-05-25T02:22:09;100492.06;;;15.06;100.00
6200;BME280;3133;43.214;27.906;2023-05-25T02:24:37;100485.13;;;15.04;100.00
6200;BME280;3133;43.214;27.906;2023-05-25T02:27:04;100487.69;;;15.07;100.00
6200;BME280;3133;43.214;27.906;2023-05-25T02:29:31;100449.63;;;14.83;100.00
6200;BME280;3133;43.214;27.906;2023-05-25T02:31:58;100499.84;;;15.12;100.00
6200;BME280;3133;43.214;27.906;2023-05-25T02:34:25;100505.28;;;15.02;100.00
6200;BME280;3133;43.214;27.906;2023-05-25T02:36:52;100506.97;;;15.06;100.00
6200;BME280;3133;43.214;27.906;2023-05-25T02:39:19;100513.03;;;15.09;100.00
6200;BME280;3133;43.214;27.906;2023-05-25T02:41:47;100517.47;;;15.07;100.00
6200;BME280;3133;43.214;27.906;2023-05-25T02:44:14;100521.28;;;14.88;100.00
6200;BME280;3133;43.214;27.906;2023-05-25T02:46:41;100517.59;;;15.00;100.00
6200;BME280;3133;43.214;27.906;2023-05-25T02:49:08;100507.28;;;14.89;100.00
6200;BME280;3133;43.214;27.906;2023-05-25T02:51:35;100497.03;;;14.74;100.00
6200;BME280;3133;43.214;27.906;2023-05-25T02:54:02;100517.16;;;14.74;100.00
6200;BME280;3133;43.214;27.906;2023-05-25T02:56:29;100516.22;;;14.79;100.00
6200;BME280;3133;43.214;27.906;2023-05-25T02:59:00;100524.78;;;14.89;100.00
6200;BME280;3133;43.214;27.906;2023-05-25T03:01:27;100498.75;;;14.77;100.00
6200;BME280;3133;43.214;27.906;2023-05-25T03:03:55;100516.91;;;14.89;100.00
6200;BME280;3133;43.214;27.906;2023-05-25T03:06:25;100530.69;;;15.01;100.00
6200;BME280;3133;43.214;27.906;2023-05-25T03:08:52;100518.63;;;14.91;100.00
6200;BME280;3133;43.214;27.906;2023-05-25T03:11:19;100483.88;;;14.77;100.00
6200;BME280;3133;43.214;27.906;2023-05-25T03:13:50;100535.72;;;15.13;100.00
6200;BME280;3133;43.214;27.906;2023-05-25T03:16:21;100482.91;;;14.81;100.00
6200;BME280;3133;43.214;27.906;2023-05-25T03:18:51;100526.25;;;15.03;100.00
6200;BME280;3133;43.214;27.906;2023-05-25T03:21:18;100535.69;;;15.15;100.00
6200;BME280;3133;43.214;27.906;2023-05-25T03:23:47;100467.44;;;14.66;100.00
6200;BME280;3133;43.214;27.906;2023-05-25T03:26:14;100479.69;;;14.66;100.00
6200;BME280;3133;43.214;27.906;2023-05-25T03:28:42;100523.75;;;14.97;100.00
6200;BME280;3133;43.214;27.906;2023-05-25T03:31:08;100544.63;;;15.05;100.00
6200;BME280;3133;43.214;27.906;2023-05-25T03:33:38;100526.25;;;15.05;100.00
6200;BME280;3133;43.214;27.906;2023-05-25T03:36:06;100549.53;;;15.23;100.00
6200;BME280;3133;43.214;27.906;2023-05-25T03:38:33;100499.88;;;15.11;100.00
6200;BME280;3133;43.214;27.906;2023-05-25T03:41:00;100547.28;;;15.51;100.00
6200;BME280;3133;43.214;27.906;2023-05-25T03:43:27;100550.03;;;15.45;100.00
6200;BME280;3133;43.214;27.906;2023-05-25T03:45:55;100544.34;;;15.66;100.00
6200;BME280;3133;43.214;27.906;2023-05-25T03:48:22;100512.06;;;15.59;100.00
6200;BME280;3133;43.214;27.906;2023-05-25T03:50:58;100547.44;;;15.86;100.00
6200;BME280;3133;43.214;27.906;2023-05-25T03:53:27;100550.63;;;16.00;100.00
6200;BME280;3133;43.214;27.906;2023-05-25T03:55:54;100538.44;;;15.96;100.00
6200;BME280;3133;43.214;27.906;2023-05-25T03:58:21;100560.81;;;16.15;100.00
6200;BME280;3133;43.214;27.906;2023-05-25T04:00:48;100557.13;;;16.24;100.00
6200;BME280;3133;43.214;27.906;2023-05-25T04:03:17;100568.28;;;16.35;100.00
6200;BME280;3133;43.214;27.906;2023-05-25T04:05:45;100560.19;;;16.44;100.00
6200;BME280;3133;43.214;27.906;2023-05-25T04:08:15;100520.00;;;16.36;100.00
6200;BME280;3133;43.214;27.906;2023-05-25T04:10:43;100516.34;;;16.43;100.00
6200;BME280;3133;43.214;27.906;2023-05-25T04:13:10;100545.00;;;16.56;100.00
6200;BME280;3133;43.214;27.906;2023-05-25T04:15:38;100566.34;;;16.79;100.00
6200;BME280;3133;43.214;27.906;2023-05-25T04:18:05;100567.19;;;16.81;100.00
6200;BME280;3133;43.214;27.906;2023-05-25T04:20:32;100573.47;;;16.76;100.00
6200;BME280;3133;43.214;27.906;2023-05-25T04:22:59;100572.50;;;16.80;100.00
6200;BME280;3133;43.214;27.906;2023-05-25T04:25:29;100547.38;;;16.67;100.00
6200;BME280;3133;43.214;27.906;2023-05-25T04:27:56;100572.31;;;16.88;100.00
6200;BME280;3133;43.214;27.906;2023-05-25T04:30:23;100569.75;;;16.84;100.00
6200;BME280;3133;43.214;27.906;2023-05-25T04:32:50;100535.22;;;16.61;100.00
6200;BME280;3133;43.214;27.906;2023-05-25T04:35:18;100575.34;;;17.06;100.00
6200;BME280;3133;43.214;27.906;2023-05-25T04:37:46;100576.84;;;17.16;100.00
6200;BME280;3133;43.214;27.906;2023-05-25T04:40:21;100580.88;;;17.29;100.00
6200;BME280;3133;43.214;27.906;2023-05-25T04:42:54;100563.44;;;16.92;100.00
6200;BME280;3133;43.214;27.906;2023-05-25T04:45:23;100588.47;;;17.09;100.00
6200;BME280;3133;43.214;27.906;2023-05-25T04:47:50;100578.75;;;17.11;100.00
6200;BME280;3133;43.214;27.906;2023-05-25T04:50:26;100599.44;;;17.26;100.00
6200;BME280;3133;43.214;27.906;2023-05-25T04:52:56;100581.13;;;17.20;100.00
6200;BME280;3133;43.214;27.906;2023-05-25T04:55:23;100594.13;;;17.28;100.00
6200;BME280;3133;43.214;27.906;2023-05-25T04:57:53;100576.84;;;17.48;100.00
6200;BME280;3133;43.214;27.906;2023-05-25T05:00:21;100599.91;;;17.74;100.00
6200;BME280;3133;43.214;27.906;2023-05-25T05:02:53;100592.78;;;17.78;100.00
6200;BME280;3133;43.214;27.906;2023-05-25T05:05:21;100579.03;;;17.96;100.00
6200;BME280;3133;43.214;27.906;2023-05-25T05:07:48;100562.63;;;18.15;100.00
6200;BME280;3133;43.214;27.906;2023-05-25T05:10:21;100605.38;;;18.57;100.00
6200;BME280;3133;43.214;27.906;2023-05-25T05:12:49;100582.34;;;18.61;100.00
6200;BME280;3133;43.214;27.906;2023-05-25T05:15:17;100606.38;;;18.81;100.00
6200;BME280;3133;43.214;27.906;2023-05-25T05:17:44;100534.44;;;18.45;100.00
6200;BME280;3133;43.214;27.906;2023-05-25T05:20:11;100602.22;;;19.00;100.00
6200;BME280;3133;43.214;27.906;2023-05-25T05:22:38;100606.28;;;19.10;100.00
6200;BME280;3133;43.214;27.906;2023-05-25T05:25:05;100614.78;;;19.20;100.00
6200;BME280;3133;43.214;27.906;2023-05-25T05:27:34;100549.66;;;18.91;100.00
6200;BME280;3133;43.214;27.906;2023-05-25T05:30:01;100612.72;;;19.28;100.00
6200;BME280;3133;43.214;27.906;2023-05-25T05:32:38;100619.06;;;19.50;100.00
6200;BME280;3133;43.214;27.906;2023-05-25T05:35:10;100615.97;;;19.62;100.00
6200;BME280;3133;43.214;27.906;2023-05-25T05:37:36;100620.91;;;19.96;100.00
6200;BME280;3133;43.214;27.906;2023-05-25T05:40:17;100626.25;;;20.17;100.00
6200;BME280;3133;43.214;27.906;2023-05-25T05:42:51;100632.84;;;20.30;100.00
6200;BME280;3133;43.214;27.906;2023-05-25T05:45:18;100550.28;;;19.96;100.00
6200;BME280;3133;43.214;27.906;2023-05-25T05:47:46;100623.53;;;20.43;100.00
6200;BME280;3133;43.214;27.906;2023-05-25T05:50:14;100629.66;;;20.89;100.00
6200;BME280;3133;43.214;27.906;2023-05-25T05:52:41;100484.09;;;21.03;100.00
6200;BME280;3133;43.214;27.906;2023-05-25T05:55:08;100641.63;;;22.21;100.00
6200;BME280;3133;43.214;27.906;2023-05-25T05:57:35;100636.06;;;23.00;100.00
6200;BME280;3133;43.214;27.906;2023-05-25T06:00:03;100571.19;;;23.71;100.00
6200;BME280;3133;43.214;27.906;2023-05-25T06:02:31;100654.91;;;24.81;100.00
6200;BME280;3133;43.214;27.906;2023-05-25T06:04:59;100645.06;;;25.58;100.00
6200;BME280;3133;43.214;27.906;2023-05-25T06:07:31;100662.00;;;26.16;100.00
6200;BME280;3133;43.214;27.906;2023-05-25T06:10:06;100661.56;;;25.94;100.00
6200;BME280;3133;43.214;27.906;2023-05-25T06:12:34;100589.38;;;25.66;100.00
6200;BME280;3133;43.214;27.906;2023-05-25T06:15:02;100650.97;;;26.07;100.00
6200;BME280;3133;43.214;27.906;2023-05-25T06:17:39;100673.66;;;26.15;100.00
6200;BME280;3133;43.214;27.906;2023-05-25T06:20:09;100642.63;;;25.69;100.00
6200;BME280;3133;43.214;27.906;2023-05-25T06:22:37;100653.00;;;26.31;100.00
6200;BME280;3133;43.214;27.906;2023-05-25T06:25:04;100668.28;;;26.57;100.00
6200;BME280;3133;43.214;27.906;2023-05-25T06:27:31;100673.16;;;26.79;100.00
6200;BME280;3133;43.214;27.906;2023-05-25T06:29:58;100672.19;;;27.60;100.00
6200;BME280;3133;43.214;27.906;2023-05-25T06:32:25;100641.03;;;27.72;100.00
6200;BME280;3133;43.214;27.906;2023-05-25T06:34:52;100677.22;;;28.17;100.00
6200;BME280;3133;43.214;27.906;2023-05-25T06:37:23;100522.81;;;26.85;100.00
6200;BME280;3133;43.214;27.906;2023-05-25T06:39:49;100673.31;;;27.70;100.00
6200;BME280;3133;43.214;27.906;2023-05-25T06:42:19;100654.56;;;27.83;100.00
6200;BME280;3133;43.214;27.906;2023-05-25T06:44:47;100678.25;;;27.76;100.00
6200;BME280;3133;43.214;27.906;2023-05-25T06:47:14;100579.84;;;27.00;100.00
6200;BME280;3133;43.214;27.906;2023-05-25T06:49:41;100681.69;;;27.91;100.00
6200;BME280;3133;43.214;27.906;2023-05-25T06:52:08;100681.88;;;27.88;100.00
6200;BME280;3133;43.214;27.906;2023-05-25T06:54:38;100666.09;;;27.71;100.00
6200;BME280;3133;43.214;27.906;2023-05-25T06:57:05;100681.44;;;27.81;100.00
6200;BME280;3133;43.214;27.906;2023-05-25T06:59:32;100675.13;;;26.90;100.00
6200;BME280;3133;43.214;27.906;2023-05-25T07:02:00;100645.13;;;24.81;100.00
6200;BME280;3133;43.214;27.906;2023-05-25T07:04:44;100650.44;;;24.97;100.00
6200;BME280;3133;43.214;27.906;2023-05-25T07:07:12;100627.66;;;24.76;100.00
6200;BME280;3133;43.214;27.906;2023-05-25T07:09:44;100632.53;;;24.52;100.00
6200;BME280;3133;43.214;27.906;2023-05-25T07:12:14;100650.00;;;24.09;100.00
6200;BME280;3133;43.214;27.906;2023-05-25T07:14:41;100643.34;;;22.97;100.00
6200;BME280;3133;43.214;27.906;2023-05-25T07:17:08;100548.53;;;22.41;100.00
6200;BME280;3133;43.214;27.906;2023-05-25T07:19:38;100530.69;;;22.62;100.00
6200;BME280;3133;43.214;27.906;2023-05-25T07:22:08;100663.53;;;23.19;100.00
6200;BME280;3133;43.214;27.906;2023-05-25T07:24:37;100595.88;;;22.14;100.00
6200;BME280;3133;43.214;27.906;2023-05-25T07:27:12;100658.72;;;22.34;100.00
6200;BME280;3133;43.214;27.906;2023-05-25T07:29:42;100650.84;;;22.88;100.00
6200;BME280;3133;43.214;27.906;2023-05-25T07:32:10;100654.59;;;22.66;100.00
6200;BME280;3133;43.214;27.906;2023-05-25T07:34:37;100619.25;;;22.64;100.00
6200;BME280;3133;43.214;27.906;2023-05-25T07:37:04;100649.59;;;23.31;100.00
6200;BME280;3133;43.214;27.906;2023-05-25T07:39:32;100558.06;;;23.17;100.00
6200;BME280;3133;43.214;27.906;2023-05-25T07:41:59;100583.63;;;23.38;100.00
6200;BME280;3133;43.214;27.906;2023-05-25T07:44:58;100607.09;;;22.94;100.00
6200;BME280;3133;43.214;27.906;2023-05-25T07:47:36;100544.59;;;22.85;100.00
6200;BME280;3133;43.214;27.906;2023-05-25T07:50:28;100610.53;;;23.99;100.00
6200;BME280;3133;43.214;27.906;2023-05-25T07:56:43;100662.09;;;24.63;100.00
6200;BME280;3133;43.214;27.906;2023-05-25T07:59:11;100664.91;;;24.77;100.00
6200;BME280;3133;43.214;27.906;2023-05-25T08:01:41;100660.31;;;25.10;100.00
6200;BME280;3133;43.214;27.906;2023-05-25T08:04:12;100675.59;;;25.54;100.00
6200;BME280;3133;43.214;27.906;2023-05-25T08:06:40;100616.16;;;25.05;100.00
6200;BME280;3133;43.214;27.906;2023-05-25T08:09:10;100556.44;;;24.76;100.00
6200;BME280;3133;43.214;27.906;2023-05-25T08:11:58;100555.41;;;24.63;100.00
6200;BME280;3133;43.214;27.906;2023-05-25T08:14:26;100583.72;;;24.34;100.00
6200;BME280;3133;43.214;27.906;2023-05-25T08:16:54;100590.81;;;23.36;100.00
6200;BME280;3133;43.214;27.906;2023-05-25T08:19:21;100673.66;;;23.11;100.00
6200;BME280;3133;43.214;27.906;2023-05-25T08:21:48;100654.47;;;23.05;100.00
6200;BME280;3133;43.214;27.906;2023-05-25T08:24:15;100637.28;;;23.12;100.00
6200;BME280;3133;43.214;27.906;2023-05-25T08:26:42;100649.34;;;22.46;100.00
6200;BME280;3133;43.214;27.906;2023-05-25T08:29:12;100647.44;;;21.50;100.00
6200;BME280;3133;43.214;27.906;2023-05-25T08:31:39;100644.22;;;21.22;100.00
6200;BME280;3133;43.214;27.906;2023-05-25T08:34:21;100564.00;;;20.52;100.00
6200;BME280;3133;43.214;27.906;2023-05-25T08:36:50;100668.34;;;21.16;100.00
6200;BME280;3133;43.214;27.906;2023-05-25T08:39:16;100572.19;;;20.46;100.00
6200;BME280;3133;43.214;27.906;2023-05-25T08:41:47;100544.47;;;20.10;100.00
6200;BME280;3133;43.214;27.906;2023-05-25T08:44:16;100638.59;;;20.64;100.00
6200;BME280;3133;43.214;27.906;2023-05-25T08:46:46;100595.47;;;20.59;100.00
6200;BME280;3133;43.214;27.906;2023-05-25T08:49:14;100632.59;;;21.24;100.00
6200;BME280;3133;43.214;27.906;2023-05-25T08:51:47;100572.06;;;21.34;100.00
6200;BME280;3133;43.214;27.906;2023-05-25T08:54:17;100504.00;;;21.33;100.00
6200;BME280;3133;43.214;27.906;2023-05-25T08:56:48;100653.41;;;22.53;100.00
6200;BME280;3133;43.214;27.906;2023-05-25T08:59:35;100601.50;;;22.64;100.00
6200;BME280;3133;43.214;27.906;2023-05-25T09:02:16;100630.63;;;23.20;100.00
6200;BME280;3133;43.214;27.906;2023-05-25T09:04:46;100579.72;;;22.92;100.00
6200;BME280;3133;43.214;27.906;2023-05-25T09:07:15;100633.75;;;23.28;100.00
6200;BME280;3133;43.214;27.906;2023-05-25T09:09:42;100492.94;;;22.37;100.00
6200;BME280;3133;43.214;27.906;2023-05-25T09:12:11;100655.59;;;23.18;100.00
6200;BME280;3133;43.214;27.906;2023-05-25T09:14:38;100541.53;;;22.76;100.00
6200;BME280;3133;43.214;27.906;2023-05-25T09:17:10;100657.28;;;23.72;100.00
6200;BME280;3133;43.214;27.906;2023-05-25T09:19:39;100674.53;;;23.47;100.00
6200;BME280;3133;43.214;27.906;2023-05-25T09:22:07;100532.94;;;22.88;100.00
6200;BME280;3133;43.214;27.906;2023-05-25T09:24:47;100620.56;;;23.44;100.00
6200;BME280;3133;43.214;27.906;2023-05-25T09:27:19;100605.75;;;23.21;100.00
6200;BME280;3133;43.214;27.906;2023-05-25T09:29:58;100552.13;;;23.12;100.00
6200;BME280;3133;43.214;27.906;2023-05-25T09:32:28;100664.38;;;23.73;100.00
6200;BME280;3133;43.214;27.906;2023-05-25T09:34:55;100660.66;;;23.75;100.00
6200;BME280;3133;43.214;27.906;2023-05-25T09:37:22;100653.84;;;23.87;100.00
6200;BME280;3133;43.214;27.906;2023-05-25T09:39:51;100660.91;;;23.88;100.00
6200;BME280;3133;43.214;27.906;2023-05-25T09:42:18;100623.31;;;23.59;100.00
6200;BME280;3133;43.214;27.906;2023-05-25T09:44:46;100505.09;;;22.78;100.00
6200;BME280;3133;43.214;27.906;2023-05-25T09:47:14;100511.78;;;22.85;100.00
6200;BME280;3133;43.214;27.906;2023-05-25T09:49:44;100539.34;;;23.01;100.00
6200;BME280;3133;43.214;27.906;2023-05-25T09:52:14;100559.09;;;23.14;100.00
6200;BME280;3133;43.214;27.906;2023-05-25T09:55:05;100535.59;;;22.34;100.00
6200;BME280;3133;43.214;27.906;2023-05-25T09:58:03;100630.41;;;22.14;100.00
6200;BME280;3133;43.214;27.906;2023-05-25T10:00:44;100518.53;;;21.45;100.00
6200;BME280;3133;43.214;27.906;2023-05-25T10:03:13;100527.94;;;21.52;100.00
6200;BME280;3133;43.214;27.906;2023-05-25T10:12:48;100515.16;;;22.71;100.00
6200;BME280;3133;43.214;27.906;2023-05-25T10:15:18;100656.91;;;23.79;100.00
6200;BME280;3133;43.214;27.906;2023-05-25T10:17:52;100558.00;;;23.35;100.00
6200;BME280;3133;43.214;27.906;2023-05-25T10:20:20;100607.97;;;23.47;100.00
6200;BME280;3133;43.214;27.906;2023-05-25T10:22:57;100663.56;;;24.05;100.00
6200;BME280;3133;43.214;27.906;2023-05-25T10:25:30;100661.44;;;24.11;100.00
6200;BME280;3133;43.214;27.906;2023-05-25T10:28:18;100634.63;;;23.97;100.00
6200;BME280;3133;43.214;27.906;2023-05-25T10:30:59;100664.50;;;23.52;100.00
6200;BME280;3133;43.214;27.906;2023-05-25T10:33:40;100607.94;;;23.64;100.00
6200;BME280;3133;43.214;27.906;2023-05-25T10:36:21;100606.78;;;24.20;100.00
6200;BME280;3133;43.214;27.906;2023-05-25T10:39:06;100520.22;;;24.10;100.00
6200;BME280;3133;43.214;27.906;2023-05-25T10:41:52;100647.56;;;24.69;100.00
6200;BME280;3133;43.214;27.906;2023-05-25T10:44:49;100625.91;;;24.90;100.00
6200;BME280;3133;43.214;27.906;2023-05-25T10:53:57;100585.53;;;24.81;100.00
6200;BME280;3133;43.214;27.906;2023-05-25T10:56:34;100571.91;;;24.70;100.00
6200;BME280;3133;43.214;27.906;2023-05-25T11:02:54;100592.75;;;25.24;100.00
6200;BME280;3133;43.214;27.906;2023-05-25T11:05:38;100638.47;;;25.49;100.00
6200;BME280;3133;43.214;27.906;2023-05-25T11:08:24;100589.69;;;25.16;100.00
6200;BME280;3133;43.214;27.906;2023-05-25T11:12:01;100567.50;;;25.00;100.00
6200;BME280;3133;43.214;27.906;2023-05-25T11:15:09;100533.28;;;24.77;100.00
6200;BME280;3133;43.214;27.906;2023-05-25T11:20:48;100590.19;;;24.77;100.00
6200;BME280;3133;43.214;27.906;2023-05-25T11:23:53;100632.44;;;25.00;100.00
6200;BME280;3133;43.214;27.906;2023-05-25T11:26:56;100626.31;;;24.98;100.00
6200;BME280;3133;43.214;27.906;2023-05-25T11:29:49;100618.78;;;24.75;100.00
6200;BME280;3133;43.214;27.906;2023-05-25T11:32:24;100613.91;;;24.19;100.00
6200;BME280;3133;43.214;27.906;2023-05-25T11:34:56;100513.13;;;23.78;100.00
6200;BME280;3133;43.214;27.906;2023-05-25T11:37:37;100440.72;;;23.38;100.00
6200;BME280;3133;43.214;27.906;2023-05-25T11:40:21;100601.53;;;24.01;100.00
6200;BME280;3133;43.214;27.906;2023-05-25T11:42:51;100608.25;;;23.58;100.00
6200;BME280;3133;43.214;27.906;2023-05-25T11:45:21;100582.59;;;23.23;100.00
6200;BME280;3133;43.214;27.906;2023-05-25T11:47:50;100573.94;;;22.84;100.00
6200;BME280;3133;43.214;27.906;2023-05-25T11:50:17;100595.56;;;22.76;100.00
6200;BME280;3133;43.214;27.906;2023-05-25T11:52:50;100597.81;;;22.48;100.00
6200;BME280;3133;43.214;27.906;2023-05-25T11:55:21;100561.41;;;21.94;100.00
6200;BME280;3133;43.214;27.906;2023-05-25T11:57:57;100484.66;;;21.50;100.00
6200;BME280;3133;43.214;27.906;2023-05-25T12:00:30;100469.19;;;21.59;100.00
6200;BME280;3133;43.214;27.906;2023-05-25T12:03:02;100517.72;;;22.19;100.00
6200;BME280;3133;43.214;27.906;2023-05-25T12:05:38;100510.09;;;22.30;100.00
6200;BME280;3133;43.214;27.906;2023-05-25T12:11:05;100544.34;;;22.90;100.00
6200;BME280;3133;43.214;27.906;2023-05-25T12:13:45;100503.34;;;22.77;100.00
6200;BME280;3133;43.214;27.906;2023-05-25T12:16:17;100586.72;;;23.29;100.00
6200;BME280;3133;43.214;27.906;2023-05-25T12:18:46;100539.81;;;22.92;100.00
6200;BME280;3133;43.214;27.906;2023-05-25T12:21:14;100491.94;;;22.39;100.00
6200;BME280;3133;43.214;27.906;2023-05-25T12:23:44;100561.97;;;22.57;100.00
6200;BME280;3133;43.214;27.906;2023-05-25T12:26:21;100587.19;;;22.67;100.00
6200;BME280;3133;43.214;27.906;2023-05-25T12:29:00;100446.47;;;21.91;100.00
6200;BME280;3133;43.214;27.906;2023-05-25T12:31:39;100591.53;;;22.86;100.00
6200;BME280;3133;43.214;27.906;2023-05-25T12:34:10;100567.03;;;22.80;100.00
6200;BME280;3133;43.214;27.906;2023-05-25T12:36:45;100472.59;;;22.00;100.00
6200;BME280;3133;43.214;27.906;2023-05-25T12:39:18;100594.38;;;22.09;100.00
6200;BME280;3133;43.214;27.906;2023-05-25T12:45:27;100475.88;;;21.09;100.00
6200;BME280;3133;43.214;27.906;2023-05-25T12:48:00;100508.38;;;21.34;100.00
6200;BME280;3133;43.214;27.906;2023-05-25T12:50:58;100614.16;;;21.83;100.00
6200;BME280;3133;43.214;27.906;2023-05-25T12:53:50;100541.53;;;21.04;100.00
6200;BME280;3133;43.214;27.906;2023-05-25T12:56:19;100649.50;;;21.64;100.00
6200;BME280;3133;43.214;27.906;2023-05-25T12:59:04;100643.22;;;21.24;100.00
6200;BME280;3133;43.214;27.906;2023-05-25T13:02:14;100637.03;;;21.24;100.00
6200;BME280;3133;43.214;27.906;2023-05-25T13:05:16;100659.47;;;21.17;100.00
6200;BME280;3133;43.214;27.906;2023-05-25T13:07:53;100632.75;;;21.21;100.00
6200;BME280;3133;43.214;27.906;2023-05-25T13:10:39;100479.72;;;20.40;100.00
6200;BME280;3133;43.214;27.906;2023-05-25T13:13:29;100539.44;;;20.90;100.00
6200;BME280;3133;43.214;27.906;2023-05-25T13:16:11;100550.41;;;21.03;100.00
6200;BME280;3133;43.214;27.906;2023-05-25T13:19:25;100641.97;;;21.73;100.00
6200;BME280;3133;43.214;27.906;2023-05-25T13:22:20;100483.81;;;20.89;100.00
6200;BME280;3133;43.214;27.906;2023-05-25T13:25:11;100583.41;;;21.58;100.00
6200;BME280;3133;43.214;27.906;2023-05-25T13:28:33;100533.31;;;21.10;100.00
6200;BME280;3133;43.214;27.906;2023-05-25T13:31:04;100536.34;;;20.79;100.00
6200;BME280;3133;43.214;27.906;2023-05-25T13:33:50;100531.28;;;20.95;100.00
6200;BME280;3133;43.214;27.906;2023-05-25T13:36:19;100608.09;;;21.60;100.00
6200;BME280;3133;43.214;27.906;2023-05-25T13:38:48;100542.69;;;21.38;100.00
6200;BME280;3133;43.214;27.906;2023-05-25T13:41:17;100591.69;;;21.70;100.00
6200;BME280;3133;43.214;27.906;2023-05-25T13:43:46;100567.88;;;21.69;100.00
6200;BME280;3133;43.214;27.906;2023-05-25T13:46:13;100580.63;;;21.99;100.00